sensor_id;sensor_type;location;lat;lon;timestamp;pressure;altitude;pressure_sealevel;temperature
4944;BMP280;2487;52.224;11.006;2022-10-16T00:02:05;-24544.53;;;148.88
4944;BMP280;2487;52.224;11.006;2022-10-16T00:04:31;-24368.81;;;140.39
4944;BMP280;2487;52.224;11.006;2022-10-16T00:06:57;-24196.59;;;132.41
4944;BMP280;2487;52.224;11.006;2022-10-16T00:09:22;-24092.03;;;127.72
4944;BMP280;2487;52.224;11.006;2022-10-16T00:11:48;-24125.94;;;129.23
4944;BMP280;2487;52.224;11.006;2022-10-16T00:14:14;-24061.50;;;126.37
4944;BMP280;2487;52.224;11.006;2022-10-16T00:16:41;-24079.16;;;127.15
4944;BMP280;2487;52.224;11.006;2022-10-16T00:19:07;-24003.16;;;123.80
4944;BMP280;2487;52.224;11.006;2022-10-16T00:21:33;-23971.06;;;122.40
4944;BMP280;2487;52.224;11.006;2022-10-16T00:24:17;-24003.72;;;123.83
4944;BMP280;2487;52.224;11.006;2022-10-16T00:26:43;-23963.34;;;122.07
4944;BMP280;2487;52.224;11.006;2022-10-16T00:29:09;-24074.88;;;126.96
4944;BMP280;2487;52.224;11.006;2022-10-16T00:31:35;-23997.28;;;123.55
4944;BMP280;2487;52.224;11.006;2022-10-16T00:34:01;-23968.41;;;122.29
4944;BMP280;2487;52.224;11.006;2022-10-16T00:36:27;-23975.00;;;122.57
4944;BMP280;2487;52.224;11.006;2022-10-16T00:38:55;-23982.94;;;122.92
4944;BMP280;2487;52.224;11.006;2022-10-16T00:41:23;-23980.97;;;122.83
4944;BMP280;2487;52.224;11.006;2022-10-16T00:43:55;-24045.72;;;125.67
4944;BMP280;2487;52.224;11.006;2022-10-16T00:49:10;-24060.84;;;126.33
4944;BMP280;2487;52.224;11.006;2022-10-16T00:51:39;-24010.25;;;124.11
4944;BMP280;2487;52.224;11.006;2022-10-16T00:54:14;-23935.91;;;120.88
4944;BMP280;2487;52.224;11.006;2022-10-16T00:56:41;-23981.91;;;122.87
4944;BMP280;2487;52.224;11.006;2022-10-16T00:59:21;-23956.16;;;121.76
4944;BMP280;2487;52.224;11.006;2022-10-16T01:01:48;-24013.91;;;124.27
4944;BMP280;2487;52.224;11.006;2022-10-16T01:04:14;-23985.47;;;123.03
4944;BMP280;2487;52.224;11.006;2022-10-16T01:15:16;-23846.66;;;117.06
4944;BMP280;2487;52.224;11.006;2022-10-16T01:17:53;-23398.22;;;98.65
4944;BMP280;2487;52.224;11.006;2022-10-16T01:20:30;-23198.06;;;90.78
4944;BMP280;2487;52.224;11.006;2022-10-16T01:23:04;-23206.31;;;91.10
4944;BMP280;2487;52.224;11.006;2022-10-16T01:28:22;-23121.59;;;87.82
4944;BMP280;2487;52.224;11.006;2022-10-16T01:30:52;-23111.84;;;87.44
4944;BMP280;2487;52.224;11.006;2022-10-16T01:33:24;-23110.28;;;87.38
4944;BMP280;2487;52.224;11.006;2022-10-16T01:35:55;-23022.22;;;84.01
4944;BMP280;2487;52.224;11.006;2022-10-16T01:38:36;-22861.50;;;77.93
4944;BMP280;2487;52.224;11.006;2022-10-16T01:41:21;-23226.88;;;91.90
4944;BMP280;2487;52.224;11.006;2022-10-16T01:44:03;-23331.91;;;96.02
4944;BMP280;2487;52.224;11.006;2022-10-16T01:46:30;-23298.84;;;94.72
4944;BMP280;2487;52.224;11.006;2022-10-16T01:48:57;-23304.47;;;94.94
4944;BMP280;2487;52.224;11.006;2022-10-16T01:51:24;-23294.78;;;94.56
4944;BMP280;2487;52.224;11.006;2022-10-16T01:53:53;-23381.34;;;97.98
4944;BMP280;2487;52.224;11.006;2022-10-16T01:56:21;-23211.81;;;91.31
4944;BMP280;2487;52.224;11.006;2022-10-16T01:58:53;-23289.44;;;94.35
4944;BMP280;2487;52.224;11.006;2022-10-16T02:01:22;-23262.50;;;93.29
4944;BMP280;2487;52.224;11.006;2022-10-16T02:03:52;-23367.84;;;97.44
4944;BMP280;2487;52.224;11.006;2022-10-16T02:06:18;-23308.16;;;95.08
4944;BMP280;2487;52.224;11.006;2022-10-16T02:08:45;-23474.44;;;101.69
4944;BMP280;2487;52.224;11.006;2022-10-16T02:11:11;-23357.22;;;97.02
4944;BMP280;2487;52.224;11.006;2022-10-16T02:16:04;-23493.84;;;102.48
4944;BMP280;2487;52.224;11.006;2022-10-16T02:18:30;-23528.19;;;103.86
4944;BMP280;2487;52.224;11.006;2022-10-16T02:21:02;-23526.34;;;103.79
4944;BMP280;2487;52.224;11.006;2022-10-16T02:23:53;-23521.25;;;103.58
4944;BMP280;2487;52.224;11.006;2022-10-16T02:26:30;-23423.72;;;99.66
4944;BMP280;2487;52.224;11.006;2022-10-16T02:29:01;-23543.03;;;104.46
4944;BMP280;2487;52.224;11.006;2022-10-16T02:31:33;-23535.25;;;104.15
4944;BMP280;2487;52.224;11.006;2022-10-16T02:34:02;-23669.13;;;109.63
4944;BMP280;2487;52.224;11.006;2022-10-16T02:36:31;-23609.59;;;107.18
4944;BMP280;2487;52.224;11.006;2022-10-16T02:38:58;-23578.47;;;105.91
4944;BMP280;2487;52.224;11.006;2022-10-16T02:41:25;-23559.78;;;105.14
4944;BMP280;2487;52.224;11.006;2022-10-16T02:43:51;-23672.03;;;109.75
4944;BMP280;2487;52.224;11.006;2022-10-16T02:46:18;-23693.56;;;110.64
4944;BMP280;2487;52.224;11.006;2022-10-16T02:48:44;-23649.94;;;108.83
4944;BMP280;2487;52.224;11.006;2022-10-16T02:51:10;-23628.41;;;107.95
4944;BMP280;2487;52.224;11.006;2022-10-16T02:53:35;-23598.72;;;106.73
4944;BMP280;2487;52.224;11.006;2022-10-16T02:56:01;-23689.34;;;110.46
4944;BMP280;2487;52.224;11.006;2022-10-16T02:58:27;-23705.63;;;111.14
4944;BMP280;2487;52.224;11.006;2022-10-16T03:00:52;-23617.78;;;107.51
4944;BMP280;2487;52.224;11.006;2022-10-16T03:03:18;-23590.00;;;106.38
4944;BMP280;2487;52.224;11.006;2022-10-16T03:05:44;-23567.28;;;105.45
4944;BMP280;2487;52.224;11.006;2022-10-16T03:08:12;-23632.44;;;108.11
4944;BMP280;2487;52.224;11.006;2022-10-16T03:10:38;-23709.97;;;111.32
4944;BMP280;2487;52.224;11.006;2022-10-16T03:13:03;-23673.84;;;109.82
4944;BMP280;2487;52.224;11.006;2022-10-16T03:15:29;-23674.59;;;109.85
4944;BMP280;2487;52.224;11.006;2022-10-16T03:17:57;-23679.19;;;110.04
4944;BMP280;2487;52.224;11.006;2022-10-16T03:20:24;-23736.19;;;112.41
4944;BMP280;2487;52.224;11.006;2022-10-16T03:22:49;-23705.28;;;111.12
4944;BMP280;2487;52.224;11.006;2022-10-16T03:25:15;-23684.16;;;110.25
4944;BMP280;2487;52.224;11.006;2022-10-16T03:27:41;-23698.28;;;110.83
4944;BMP280;2487;52.224;11.006;2022-10-16T03:30:07;-23723.69;;;111.89
4944;BMP280;2487;52.224;11.006;2022-10-16T03:32:33;-23707.69;;;111.22
4944;BMP280;2487;52.224;11.006;2022-10-16T03:34:59;-23663.44;;;109.39
4944;BMP280;2487;52.224;11.006;2022-10-16T03:37:24;-23728.25;;;112.08
4944;BMP280;2487;52.224;11.006;2022-10-16T03:39:50;-23645.81;;;108.66
4944;BMP280;2487;52.224;11.006;2022-10-16T03:42:16;-23622.91;;;107.72
4944;BMP280;2487;52.224;11.006;2022-10-16T03:44:42;-23693.22;;;110.62
4944;BMP280;2487;52.224;11.006;2022-10-16T03:47:07;-23655.91;;;109.08
4944;BMP280;2487;52.224;11.006;2022-10-16T03:49:33;-23669.13;;;109.63
4944;BMP280;2487;52.224;11.006;2022-10-16T03:51:59;-23605.44;;;107.01
4944;BMP280;2487;52.224;11.006;2022-10-16T03:54:24;-23572.81;;;105.68
4944;BMP280;2487;52.224;11.006;2022-10-16T03:56:50;-23595.28;;;106.59
4944;BMP280;2487;52.224;11.006;2022-10-16T03:59:16;-23627.69;;;107.92
4944;BMP280;2487;52.224;11.006;2022-10-16T04:01:41;-23674.09;;;109.83
4944;BMP280;2487;52.224;11.006;2022-10-16T04:04:07;-23740.63;;;112.59
4944;BMP280;2487;52.224;11.006;2022-10-16T04:06:33;-23690.91;;;110.53
4944;BMP280;2487;52.224;11.006;2022-10-16T04:08:58;-23728.84;;;112.10
4944;BMP280;2487;52.224;11.006;2022-10-16T04:11:24;-23733.19;;;112.28
4944;BMP280;2487;52.224;11.006;2022-10-16T04:13:50;-23704.31;;;111.08
4944;BMP280;2487;52.224;11.006;2022-10-16T04:16:15;-23629.63;;;108.00
4944;BMP280;2487;52.224;11.006;2022-10-16T04:18:41;-23620.84;;;107.64
4944;BMP280;2487;52.224;11.006;2022-10-16T04:21:07;-23551.16;;;104.79
4944;BMP280;2487;52.224;11.006;2022-10-16T04:23:33;-23589.41;;;106.35
4944;BMP280;2487;52.224;11.006;2022-10-16T04:25:59;-23499.94;;;102.72
4944;BMP280;2487;52.224;11.006;2022-10-16T04:28:25;-23488.28;;;102.25
4944;BMP280;2487;52.224;11.006;2022-10-16T04:30:51;-23451.63;;;100.78
4944;BMP280;2487;52.224;11.006;2022-10-16T04:33:17;-23463.00;;;101.23
4944;BMP280;2487;52.224;11.006;2022-10-16T04:35:42;-23453.50;;;100.85
4944;BMP280;2487;52.224;11.006;2022-10-16T04:38:08;-23419.19;;;99.48
4944;BMP280;2487;52.224;11.006;2022-10-16T04:40:34;-23277.81;;;93.89
4944;BMP280;2487;52.224;11.006;2022-10-16T04:43:03;-23433.22;;;100.04
4944;BMP280;2487;52.224;11.006;2022-10-16T04:45:29;-23164.63;;;89.48
4944;BMP280;2487;52.224;11.006;2022-10-16T04:47:58;-23354.56;;;96.91
4944;BMP280;2487;52.224;11.006;2022-10-16T04:50:24;-23345.34;;;96.55
4944;BMP280;2487;52.224;11.006;2022-10-16T04:53:04;-23348.13;;;96.66
4944;BMP280;2487;52.224;11.006;2022-10-16T04:55:29;-23332.41;;;96.04
4944;BMP280;2487;52.224;11.006;2022-10-16T04:57:55;-22562.91;;;66.86
4944;BMP280;2487;52.224;11.006;2022-10-16T05:00:20;-22385.91;;;60.43
4944;BMP280;2487;52.224;11.006;2022-10-16T05:02:49;-22252.44;;;55.63
4944;BMP280;2487;52.224;11.006;2022-10-16T05:05:15;-22379.38;;;60.19
4944;BMP280;2487;52.224;11.006;2022-10-16T05:07:41;-22139.78;;;51.61
4944;BMP280;2487;52.224;11.006;2022-10-16T05:10:07;-22040.09;;;48.08
4944;BMP280;2487;52.224;11.006;2022-10-16T05:12:33;-21953.91;;;45.04
4944;BMP280;2487;52.224;11.006;2022-10-16T05:14:59;-22028.63;;;47.67
4944;BMP280;2487;52.224;11.006;2022-10-16T05:17:25;-21906.59;;;43.38
4944;BMP280;2487;52.224;11.006;2022-10-16T05:19:51;-21905.59;;;43.34
4944;BMP280;2487;52.224;11.006;2022-10-16T05:22:17;-21705.09;;;36.35
4944;BMP280;2487;52.224;11.006;2022-10-16T05:24:43;-21769.41;;;38.59
4944;BMP280;2487;52.224;11.006;2022-10-16T05:27:09;-21784.78;;;39.12
4944;BMP280;2487;52.224;11.006;2022-10-16T05:29:36;-21837.84;;;40.97
4944;BMP280;2487;52.224;11.006;2022-10-16T05:32:02;-21752.44;;;38.00
4944;BMP280;2487;52.224;11.006;2022-10-16T05:34:27;-21709.25;;;36.50
4944;BMP280;2487;52.224;11.006;2022-10-16T05:36:53;-21760.38;;;38.27
4944;BMP280;2487;52.224;11.006;2022-10-16T05:39:19;-21948.66;;;44.86
4944;BMP280;2487;52.224;11.006;2022-10-16T05:41:45;-21850.59;;;41.42
4944;BMP280;2487;52.224;11.006;2022-10-16T05:44:11;-22075.19;;;49.32
4944;BMP280;2487;52.224;11.006;2022-10-16T05:46:37;-22125.41;;;51.10
4944;BMP280;2487;52.224;11.006;2022-10-16T05:49:02;-22141.63;;;51.68
4944;BMP280;2487;52.224;11.006;2022-10-16T05:51:28;-22157.94;;;52.26
4944;BMP280;2487;52.224;11.006;2022-10-16T05:56:19;-22179.44;;;53.02
4944;BMP280;2487;52.224;11.006;2022-10-16T05:58:45;-22218.00;;;54.40
4944;BMP280;2487;52.224;11.006;2022-10-16T06:01:13;-22007.50;;;46.93
4944;BMP280;2487;52.224;11.006;2022-10-16T06:03:39;-22063.88;;;48.92
4944;BMP280;2487;52.224;11.006;2022-10-16T06:08:39;-22100.59;;;50.22
4944;BMP280;2487;52.224;11.006;2022-10-16T06:11:10;-22281.22;;;56.66
4944;BMP280;2487;52.224;11.006;2022-10-16T06:13:36;-22340.38;;;58.79
4944;BMP280;2487;52.224;11.006;2022-10-16T06:16:03;-22281.50;;;56.67
4944;BMP280;2487;52.224;11.006;2022-10-16T06:18:29;-22425.47;;;61.86
4944;BMP280;2487;52.224;11.006;2022-10-16T06:20:56;-22419.94;;;61.66
4944;BMP280;2487;52.224;11.006;2022-10-16T06:23:23;-22466.72;;;63.35
4944;BMP280;2487;52.224;11.006;2022-10-16T06:25:49;-22675.19;;;70.99
4944;BMP280;2487;52.224;11.006;2022-10-16T06:28:15;-22624.00;;;69.10
4944;BMP280;2487;52.224;11.006;2022-10-16T06:30:41;-22703.47;;;72.04
4944;BMP280;2487;52.224;11.006;2022-10-16T06:33:10;-22714.84;;;72.46
4944;BMP280;2487;52.224;11.006;2022-10-16T06:35:36;-22730.47;;;73.04
4944;BMP280;2487;52.224;11.006;2022-10-16T06:38:01;-22706.31;;;72.14
4944;BMP280;2487;52.224;11.006;2022-10-16T06:40:27;-22790.22;;;75.26
4944;BMP280;2487;52.224;11.006;2022-10-16T06:42:56;-22765.09;;;74.32
4944;BMP280;2487;52.224;11.006;2022-10-16T06:45:22;-22866.81;;;78.13
4944;BMP280;2487;52.224;11.006;2022-10-16T06:47:47;-22856.81;;;77.75
4944;BMP280;2487;52.224;11.006;2022-10-16T06:50:13;-22866.03;;;78.10
4944;BMP280;2487;52.224;11.006;2022-10-16T06:52:39;-22866.03;;;78.10
4944;BMP280;2487;52.224;11.006;2022-10-16T06:55:05;-22872.53;;;78.34
4944;BMP280;2487;52.224;11.006;2022-10-16T06:57:31;-22910.97;;;79.79
4944;BMP280;2487;52.224;11.006;2022-10-16T06:59:58;-22784.03;;;75.03
4944;BMP280;2487;52.224;11.006;2022-10-16T07:02:23;-22839.75;;;77.11
4944;BMP280;2487;52.224;11.006;2022-10-16T07:04:49;-22883.19;;;78.74
4944;BMP280;2487;52.224;11.006;2022-10-16T07:07:15;-22918.53;;;80.07
4944;BMP280;2487;52.224;11.006;2022-10-16T07:09:41;-22965.09;;;81.84
4944;BMP280;2487;52.224;11.006;2022-10-16T07:12:06;-23027.88;;;84.22
4944;BMP280;2487;52.224;11.006;2022-10-16T07:14:32;-23049.63;;;85.06
4944;BMP280;2487;52.224;11.006;2022-10-16T07:16:57;-23106.38;;;87.23
4944;BMP280;2487;52.224;11.006;2022-10-16T07:19:23;-23184.38;;;90.25
4944;BMP280;2487;52.224;11.006;2022-10-16T07:21:50;-23186.44;;;90.33
4944;BMP280;2487;52.224;11.006;2022-10-16T07:24:16;-23168.25;;;89.62
4944;BMP280;2487;52.224;11.006;2022-10-16T07:26:44;-23164.25;;;89.47
4944;BMP280;2487;52.224;11.006;2022-10-16T07:29:18;-23165.00;;;89.50
4944;BMP280;2487;52.224;11.006;2022-10-16T07:31:45;-23226.59;;;91.89
4944;BMP280;2487;52.224;11.006;2022-10-16T07:34:12;-23268.50;;;93.53
4944;BMP280;2487;52.224;11.006;2022-10-16T07:36:39;-23355.19;;;96.94
4944;BMP280;2487;52.224;11.006;2022-10-16T07:39:04;-23391.53;;;98.38
4944;BMP280;2487;52.224;11.006;2022-10-16T07:41:30;-23456.00;;;100.95
4944;BMP280;2487;52.224;11.006;2022-10-16T07:43:58;-23455.13;;;100.92
4944;BMP280;2487;52.224;11.006;2022-10-16T07:46:28;-23632.91;;;108.13
4944;BMP280;2487;52.224;11.006;2022-10-16T07:48:53;-23613.28;;;107.33
4944;BMP280;2487;52.224;11.006;2022-10-16T07:51:22;-23650.94;;;108.87
4944;BMP280;2487;52.224;11.006;2022-10-16T07:53:48;-23842.66;;;116.89
4944;BMP280;2487;52.224;11.006;2022-10-16T07:56:15;-23875.22;;;118.28
4944;BMP280;2487;52.224;11.006;2022-10-16T07:58:41;-24013.22;;;124.24
4944;BMP280;2487;52.224;11.006;2022-10-16T08:01:08;-24005.09;;;123.89
4944;BMP280;2487;52.224;11.006;2022-10-16T08:03:34;-24177.72;;;131.56
4944;BMP280;2487;52.224;11.006;2022-10-16T08:06:01;-24357.22;;;139.84
4944;BMP280;2487;52.224;11.006;2022-10-16T08:08:27;-24364.66;;;140.19
4944;BMP280;2487;52.224;11.006;2022-10-16T08:10:53;-24454.38;;;144.48
4944;BMP280;2487;52.224;11.006;2022-10-16T08:13:19;-24618.00;;;152.56
4944;BMP280;2487;52.224;11.006;2022-10-16T08:15:45;-24747.66;;;159.26
4944;BMP280;2487;52.224;11.006;2022-10-16T08:18:12;-24785.28;;;161.26
4944;BMP280;2487;52.224;11.006;2022-10-16T08:20:39;-24776.47;;;160.79
4944;BMP280;2487;52.224;11.006;2022-10-16T08:23:05;-24979.47;;;172.04
4944;BMP280;2487;52.224;11.006;2022-10-16T08:25:34;-24946.31;;;170.14
4944;BMP280;2487;52.224;11.006;2022-10-16T08:28:03;-25080.50;;;178.03
4944;BMP280;2487;52.224;11.006;2022-10-16T08:30:29;-25078.13;;;177.88
4944;BMP280;2487;52.224;11.006;2022-10-16T08:32:55;-25198.16;;;185.40
4944;BMP280;2487;52.224;11.006;2022-10-16T08:35:21;-25198.16;;;185.40
4944;BMP280;2487;52.224;11.006;2022-10-16T08:37:46;-25198.16;;;185.40
4944;BMP280;2487;52.224;11.006;2022-10-16T08:40:29;-25193.44;;;185.09
4944;BMP280;2487;52.224;11.006;2022-10-16T08:43:05;-25172.28;;;183.73
4944;BMP280;2487;52.224;11.006;2022-10-16T08:45:52;-25198.16;;;185.40
4944;BMP280;2487;52.224;11.006;2022-10-16T08:50:54;-25198.16;;;185.40
4944;BMP280;2487;52.224;11.006;2022-10-16T08:53:30;-25198.16;;;185.40
4944;BMP280;2487;52.224;11.006;2022-10-16T08:55:56;-25198.16;;;185.40
4944;BMP280;2487;52.224;11.006;2022-10-16T08:58:29;-25198.16;;;185.40
4944;BMP280;2487;52.224;11.006;2022-10-16T09:01:00;-25198.16;;;185.40
4944;BMP280;2487;52.224;11.006;2022-10-16T09:06:17;-25198.16;;;185.40
4944;BMP280;2487;52.224;11.006;2022-10-16T09:19:55;-25198.16;;;185.40
4944;BMP280;2487;52.224;11.006;2022-10-16T09:22:26;-25198.16;;;185.40
4944;BMP280;2487;52.224;11.006;2022-10-16T09:24:55;-25198.16;;;185.40
4944;BMP280;2487;52.224;11.006;2022-10-16T09:27:25;-25198.16;;;185.40
4944;BMP280;2487;52.224;11.006;2022-10-16T09:29:51;-25198.16;;;185.40
4944;BMP280;2487;52.224;11.006;2022-10-16T09:32:20;-25198.16;;;185.40
4944;BMP280;2487;52.224;11.006;2022-10-16T09:34:50;-25198.16;;;185.40
4944;BMP280;2487;52.224;11.006;2022-10-16T09:37:18;-25198.16;;;185.40
4944;BMP280;2487;52.224;11.006;2022-10-16T09:39:50;-25198.16;;;185.40
4944;BMP280;2487;52.224;11.006;2022-10-16T09:42:18;-25198.16;;;185.40
4944;BMP280;2487;52.224;11.006;2022-10-16T09:44:50;-25198.16;;;185.40
4944;BMP280;2487;52.224;11.006;2022-10-16T09:47:18;-25198.16;;;185.40
4944;BMP280;2487;52.224;11.006;2022-10-16T09:49:55;-25198.16;;;185.40
4944;BMP280;2487;52.224;11.006;2022-10-16T09:52:23;-25198.16;;;185.40
4944;BMP280;2487;52.224;11.006;2022-10-16T09:54:51;-25198.16;;;185.40
4944;BMP280;2487;52.224;11.006;2022-10-16T09:57:17;-25198.16;;;185.40
4944;BMP280;2487;52.224;11.006;2022-10-16T09:59:53;-25198.16;;;185.40
4944;BMP280;2487;52.224;11.006;2022-10-16T10:02:45;-25198.16;;;185.40
4944;BMP280;2487;52.224;11.006;2022-10-16T10:07:45;-25198.16;;;185.40
4944;BMP280;2487;52.224;11.006;2022-10-16T10:10:23;-25198.16;;;185.40
4944;BMP280;2487;52.224;11.006;2022-10-16T10:12:50;-25198.16;;;185.40
4944;BMP280;2487;52.224;11.006;2022-10-16T10:15:16;-25198.16;;;185.40
4944;BMP280;2487;52.224;11.006;2022-10-16T10:17:49;-25198.16;;;185.40
4944;BMP280;2487;52.224;11.006;2022-10-16T10:22:47;-25198.16;;;185.40
4944;BMP280;2487;52.224;11.006;2022-10-16T10:30:29;-25198.16;;;185.40
4944;BMP280;2487;52.224;11.006;2022-10-16T10:35:28;-25198.16;;;185.40
4944;BMP280;2487;52.224;11.006;2022-10-16T10:46:04;-25198.16;;;185.40
4944;BMP280;2487;52.224;11.006;2022-10-16T10:57:32;-25198.16;;;185.40
4944;BMP280;2487;52.224;11.006;2022-10-16T11:02:41;-25198.16;;;185.40
4944;BMP280;2487;52.224;11.006;2022-10-16T11:08:00;-25198.16;;;185.40
4944;BMP280;2487;52.224;11.006;2022-10-16T11:10:30;-25198.16;;;185.40
4944;BMP280;2487;52.224;11.006;2022-10-16T11:13:08;-25198.16;;;185.40
4944;BMP280;2487;52.224;11.006;2022-10-16T11:15:39;-25198.16;;;185.40
4944;BMP280;2487;52.224;11.006;2022-10-16T11:18:13;-25198.16;;;185.40
4944;BMP280;2487;52.224;11.006;2022-10-16T11:20:57;-25198.16;;;185.40
4944;BMP280;2487;52.224;11.006;2022-10-16T11:26:13;-25198.16;;;185.40
4944;BMP280;2487;52.224;11.006;2022-10-16T11:28:49;-25198.16;;;185.40
4944;BMP280;2487;52.224;11.006;2022-10-16T11:31:21;-25198.16;;;185.40
4944;BMP280;2487;52.224;11.006;2022-10-16T11:34:10;-25198.16;;;185.40
4944;BMP280;2487;52.224;11.006;2022-10-16T11:36:45;-25198.16;;;185.40
4944;BMP280;2487;52.224;11.006;2022-10-16T11:39:29;-25198.16;;;185.40
4944;BMP280;2487;52.224;11.006;2022-10-16T11:47:44;-25198.16;;;185.40
4944;BMP280;2487;52.224;11.006;2022-10-16T11:52:52;-25198.16;;;185.40
4944;BMP280;2487;52.224;11.006;2022-10-16T11:55:25;-25198.16;;;185.40
4944;BMP280;2487;52.224;11.006;2022-10-16T11:57:57;-25198.16;;;185.40
4944;BMP280;2487;52.224;11.006;2022-10-16T12:03:17;-25198.16;;;185.40
4944;BMP280;2487;52.224;11.006;2022-10-16T12:06:01;-25198.16;;;185.40
4944;BMP280;2487;52.224;11.006;2022-10-16T12:08:30;-25198.16;;;185.40
4944;BMP280;2487;52.224;11.006;2022-10-16T12:13:49;-25198.16;;;185.40
4944;BMP280;2487;52.224;11.006;2022-10-16T12:18:43;-25198.16;;;185.40
4944;BMP280;2487;52.224;11.006;2022-10-16T12:21:10;-25198.16;;;185.40
4944;BMP280;2487;52.224;11.006;2022-10-16T12:26:12;-25198.16;;;185.40
4944;BMP280;2487;52.224;11.006;2022-10-16T12:28:38;-21137.13;;;16.88
4944;BMP280;2487;52.224;11.006;2022-10-16T12:31:07;-22330.53;;;58.43
4944;BMP280;2487;52.224;11.006;2022-10-16T12:33:36;-22285.97;;;56.83
4944;BMP280;2487;52.224;11.006;2022-10-16T12:36:13;-22101.16;;;50.24
4944;BMP280;2487;52.224;11.006;2022-10-16T12:38:49;-21916.00;;;43.71
4944;BMP280;2487;52.224;11.006;2022-10-16T12:41:28;-21775.31;;;38.79
4944;BMP280;2487;52.224;11.006;2022-10-16T12:43:55;-21798.44;;;39.60
4944;BMP280;2487;52.224;11.006;2022-10-16T12:51:40;-21941.25;;;44.60
4944;BMP280;2487;52.224;11.006;2022-10-16T12:54:17;-21024.84;;;13.08
4944;BMP280;2487;52.224;11.006;2022-10-16T13:02:27;-20790.06;;;5.17
4944;BMP280;2487;52.224;11.006;2022-10-16T13:05:13;-21079.84;;;14.94
4944;BMP280;2487;52.224;11.006;2022-10-16T13:18:25;-19999.75;;;-21.13
4944;BMP280;2487;52.224;11.006;2022-10-16T13:26:45;-20141.91;;;-16.43
4944;BMP280;2487;52.224;11.006;2022-10-16T13:29:14;-20024.09;;;-20.33
4944;BMP280;2487;52.224;11.006;2022-10-16T13:31:40;-20062.03;;;-19.08
4944;BMP280;2487;52.224;11.006;2022-10-16T13:34:12;-20215.50;;;-13.99
4944;BMP280;2487;52.224;11.006;2022-10-16T13:36:45;-19908.38;;;-24.15
4944;BMP280;2487;52.224;11.006;2022-10-16T13:39:21;-18794.47;;;-60.83
4944;BMP280;2487;52.224;11.006;2022-10-16T13:44:26;-19561.13;;;-35.61
4944;BMP280;2487;52.224;11.006;2022-10-16T13:46:59;-19696.13;;;-31.16
4944;BMP280;2487;52.224;11.006;2022-10-16T13:49:26;-19782.53;;;-28.31
4944;BMP280;2487;52.224;11.006;2022-10-16T13:51:56;-19462.00;;;-38.87
4944;BMP280;2487;52.224;11.006;2022-10-16T13:54:23;-17972.22;;;-87.98
4944;BMP280;2487;52.224;11.006;2022-10-16T13:56:54;-17856.88;;;-91.81
4944;BMP280;2487;52.224;11.006;2022-10-16T13:59:27;-18022.25;;;-86.32
4944;BMP280;2487;52.224;11.006;2022-10-16T14:01:58;-18117.47;;;-83.17
4944;BMP280;2487;52.224;11.006;2022-10-16T14:04:32;-17894.50;;;-90.56
4944;BMP280;2487;52.224;11.006;2022-10-16T14:06:58;-20903.09;;;8.97
4944;BMP280;2487;52.224;11.006;2022-10-16T14:09:28;-19967.84;;;-22.19
4944;BMP280;2487;52.224;11.006;2022-10-16T14:11:57;-19608.31;;;-34.05
4944;BMP280;2487;52.224;11.006;2022-10-16T14:14:24;-17450.28;;;-105.35
4944;BMP280;2487;52.224;11.006;2022-10-16T14:16:52;-17795.81;;;-93.83
4944;BMP280;2487;52.224;11.006;2022-10-16T14:19:26;-17340.41;;;-109.02
4944;BMP280;2487;52.224;11.006;2022-10-16T14:21:53;-17104.72;;;-116.93
4944;BMP280;2487;52.224;11.006;2022-10-16T14:26:55;-17210.97;;;-113.36
4944;BMP280;2487;52.224;11.006;2022-10-16T14:29:23;-16381.41;;;-141.47
4944;BMP280;2487;52.224;11.006;2022-10-16T14:32:00;-17273.50;;;-111.26
4944;BMP280;2487;52.224;11.006;2022-10-16T14:34:38;-16721.66;;;-129.87
4944;BMP280;2487;52.224;11.006;2022-10-16T14:37:08;-16772.72;;;-128.14
4944;BMP280;2487;52.224;11.006;2022-10-16T14:39:35;-16695.34;;;-130.77
4944;BMP280;2487;52.224;11.006;2022-10-16T14:42:01;-16762.72;;;-128.48
4944;BMP280;2487;52.224;11.006;2022-10-16T14:44:30;-16946.03;;;-122.28
4944;BMP280;2487;52.224;11.006;2022-10-16T14:46:57;-16797.78;;;-127.29
4944;BMP280;2487;52.224;11.006;2022-10-16T14:49:25;-16880.13;;;-124.51
4944;BMP280;2487;52.224;11.006;2022-10-16T14:51:51;-16739.91;;;-129.26
4944;BMP280;2487;52.224;11.006;2022-10-16T14:54:18;-16939.22;;;-122.51
4944;BMP280;2487;52.224;11.006;2022-10-16T14:56:48;-16957.56;;;-121.89
4944;BMP280;2487;52.224;11.006;2022-10-16T14:59:19;-16880.69;;;-124.49
4944;BMP280;2487;52.224;11.006;2022-10-16T15:01:46;-17121.06;;;-116.38
4944;BMP280;2487;52.224;11.006;2022-10-16T15:04:12;-16922.38;;;-123.08
4944;BMP280;2487;52.224;11.006;2022-10-16T15:06:38;-17212.31;;;-113.32
4944;BMP280;2487;52.224;11.006;2022-10-16T15:09:04;-17189.69;;;-114.08
4944;BMP280;2487;52.224;11.006;2022-10-16T15:11:31;-17478.09;;;-104.42
4944;BMP280;2487;52.224;11.006;2022-10-16T15:13:58;-17504.13;;;-103.55
4944;BMP280;2487;52.224;11.006;2022-10-16T15:16:24;-17177.06;;;-114.50
4944;BMP280;2487;52.224;11.006;2022-10-16T15:18:50;-17320.56;;;-109.69
4944;BMP280;2487;52.224;11.006;2022-10-16T15:21:24;-17362.03;;;-108.30
4944;BMP280;2487;52.224;11.006;2022-10-16T15:23:50;-17331.31;;;-109.33
4944;BMP280;2487;52.224;11.006;2022-10-16T15:26:16;-17983.97;;;-87.59
4944;BMP280;2487;52.224;11.006;2022-10-16T15:28:41;-17759.75;;;-95.03
4944;BMP280;2487;52.224;11.006;2022-10-16T15:31:07;-17705.09;;;-96.85
4944;BMP280;2487;52.224;11.006;2022-10-16T15:33:33;-17661.56;;;-98.30
4944;BMP280;2487;52.224;11.006;2022-10-16T15:36:00;-17533.16;;;-102.58
4944;BMP280;2487;52.224;11.006;2022-10-16T15:38:27;-17796.88;;;-93.80
4944;BMP280;2487;52.224;11.006;2022-10-16T15:40:54;-17851.47;;;-91.98
4944;BMP280;2487;52.224;11.006;2022-10-16T15:43:20;-17965.44;;;-88.20
4944;BMP280;2487;52.224;11.006;2022-10-16T15:46:03;-18041.13;;;-85.70
4944;BMP280;2487;52.224;11.006;2022-10-16T15:48:30;-17861.09;;;-91.67
4944;BMP280;2487;52.224;11.006;2022-10-16T15:50:56;-18513.38;;;-70.09
4944;BMP280;2487;52.224;11.006;2022-10-16T15:53:22;-18643.00;;;-65.82
4944;BMP280;2487;52.224;11.006;2022-10-16T15:55:48;-18270.38;;;-78.11
4944;BMP280;2487;52.224;11.006;2022-10-16T15:58:14;-18298.66;;;-77.18
4944;BMP280;2487;52.224;11.006;2022-10-16T16:00:40;-18601.91;;;-67.18
4944;BMP280;2487;52.224;11.006;2022-10-16T16:03:06;-18572.94;;;-68.13
4944;BMP280;2487;52.224;11.006;2022-10-16T16:05:31;-18515.03;;;-70.04
4944;BMP280;2487;52.224;11.006;2022-10-16T16:07:58;-18775.63;;;-61.45
4944;BMP280;2487;52.224;11.006;2022-10-16T16:10:24;-18889.50;;;-57.71
4944;BMP280;2487;52.224;11.006;2022-10-16T16:12:50;-19173.41;;;-48.37
4944;BMP280;2487;52.224;11.006;2022-10-16T16:15:22;-19148.97;;;-49.17